Weather at Shubenacadie Airport [CLOSED]

Public forecast

Using degrees Celsius for public forecast. Weather courtesy of forecast.io.

Closest aviation weather report (METAR) to Shubenacadie Airport

Closest report is Halifax / Stanfield International Airport, 13.6 nm (25.3 km) SSW.

2024/06/17 03:00 (retrieved 34 minutes ago)

CYHZ 170300Z 36002KT 15SM SCT180 SCT250 13/07 A3019 RMK AC3CI1 SLP225

Closest aviation forecast (TAF) to Shubenacadie Airport

Forecast is more than 12 hours old.

Closest forecast is Halifax / CFB Shearwater Heliport, 27.8 nm (51.5 km) S.

2024/06/15 15:15 Ammendment (retrieved 2 days ago)

TAF AMD TAF AMD CYAW 151613Z 1515/1601 CNL RMK END OF FLY PROGRAM NXT FCST BY 151800Z